sensor_id;sensor_type;location;lat;lon;timestamp;P1;durP1;ratioP1;P2;durP2;ratioP2
25581;SDS011;13462;50.764;4.332;2022-12-18T00:00:42;82.85;;;37.58;;
25581;SDS011;13462;50.764;4.332;2022-12-18T00:03:08;84.30;;;38.53;;
25581;SDS011;13462;50.764;4.332;2022-12-18T00:05:34;90.18;;;39.42;;
25581;SDS011;13462;50.764;4.332;2022-12-18T00:08:00;77.47;;;36.80;;
25581;SDS011;13462;50.764;4.332;2022-12-18T00:10:27;77.85;;;35.20;;
25581;SDS011;13462;50.764;4.332;2022-12-18T00:12:53;84.07;;;37.35;;
25581;SDS011;13462;50.764;4.332;2022-12-18T00:15:19;77.65;;;36.90;;
25581;SDS011;13462;50.764;4.332;2022-12-18T00:17:44;71.32;;;34.70;;
25581;SDS011;13462;50.764;4.332;2022-12-18T00:20:10;71.78;;;34.55;;
25581;SDS011;13462;50.764;4.332;2022-12-18T00:22:35;75.20;;;34.53;;
25581;SDS011;13462;50.764;4.332;2022-12-18T00:25:01;70.68;;;33.95;;
25581;SDS011;13462;50.764;4.332;2022-12-18T00:27:27;70.07;;;33.42;;
25581;SDS011;13462;50.764;4.332;2022-12-18T00:29:52;65.07;;;32.40;;
25581;SDS011;13462;50.764;4.332;2022-12-18T00:32:18;62.92;;;31.08;;
25581;SDS011;13462;50.764;4.332;2022-12-18T00:34:43;63.30;;;29.75;;
25581;SDS011;13462;50.764;4.332;2022-12-18T00:37:09;65.32;;;31.95;;
25581;SDS011;13462;50.764;4.332;2022-12-18T00:39:34;58.47;;;28.38;;
25581;SDS011;13462;50.764;4.332;2022-12-18T00:42:00;73.57;;;30.20;;
25581;SDS011;13462;50.764;4.332;2022-12-18T00:44:44;64.70;;;30.30;;
25581;SDS011;13462;50.764;4.332;2022-12-18T00:47:09;63.40;;;28.90;;
25581;SDS011;13462;50.764;4.332;2022-12-18T00:49:35;60.90;;;29.65;;
25581;SDS011;13462;50.764;4.332;2022-12-18T00:52:00;56.05;;;27.08;;
25581;SDS011;13462;50.764;4.332;2022-12-18T00:54:26;52.90;;;25.88;;
25581;SDS011;13462;50.764;4.332;2022-12-18T00:56:52;56.15;;;28.50;;
25581;SDS011;13462;50.764;4.332;2022-12-18T00:59:17;64.78;;;28.83;;
25581;SDS011;13462;50.764;4.332;2022-12-18T01:01:43;60.03;;;28.65;;
25581;SDS011;13462;50.764;4.332;2022-12-18T01:04:09;59.15;;;26.65;;
25581;SDS011;13462;50.764;4.332;2022-12-18T01:06:35;64.15;;;26.85;;
25581;SDS011;13462;50.764;4.332;2022-12-18T01:09:01;60.92;;;26.90;;
25581;SDS011;13462;50.764;4.332;2022-12-18T01:11:27;56.63;;;27.70;;
25581;SDS011;13462;50.764;4.332;2022-12-18T01:13:53;56.78;;;29.27;;
25581;SDS011;13462;50.764;4.332;2022-12-18T01:16:20;62.70;;;29.25;;
25581;SDS011;13462;50.764;4.332;2022-12-18T01:18:45;63.70;;;27.10;;
25581;SDS011;13462;50.764;4.332;2022-12-18T01:21:12;56.78;;;25.70;;
25581;SDS011;13462;50.764;4.332;2022-12-18T01:23:40;62.33;;;26.83;;
25581;SDS011;13462;50.764;4.332;2022-12-18T01:26:10;51.88;;;26.33;;
25581;SDS011;13462;50.764;4.332;2022-12-18T01:28:38;58.67;;;26.65;;
25581;SDS011;13462;50.764;4.332;2022-12-18T01:31:25;55.55;;;27.52;;
25581;SDS011;13462;50.764;4.332;2022-12-18T01:33:54;55.10;;;26.38;;
25581;SDS011;13462;50.764;4.332;2022-12-18T01:36:24;54.80;;;26.98;;
25581;SDS011;13462;50.764;4.332;2022-12-18T01:38:52;51.55;;;24.90;;
25581;SDS011;13462;50.764;4.332;2022-12-18T01:41:22;54.38;;;26.60;;
25581;SDS011;13462;50.764;4.332;2022-12-18T01:43:55;57.50;;;26.35;;
25581;SDS011;13462;50.764;4.332;2022-12-18T01:46:23;48.60;;;25.02;;
25581;SDS011;13462;50.764;4.332;2022-12-18T01:48:52;49.50;;;24.85;;
25581;SDS011;13462;50.764;4.332;2022-12-18T01:51:27;52.42;;;25.50;;
25581;SDS011;13462;50.764;4.332;2022-12-18T01:54:12;46.22;;;21.95;;
25581;SDS011;13462;50.764;4.332;2022-12-18T01:56:41;47.95;;;21.00;;
25581;SDS011;13462;50.764;4.332;2022-12-18T01:59:14;44.63;;;20.85;;
25581;SDS011;13462;50.764;4.332;2022-12-18T02:01:40;41.00;;;20.25;;
25581;SDS011;13462;50.764;4.332;2022-12-18T02:31:07;36.95;;;18.52;;
25581;SDS011;13462;50.764;4.332;2022-12-18T02:34:00;33.60;;;16.33;;
25581;SDS011;13462;50.764;4.332;2022-12-18T02:36:40;33.42;;;15.60;;
25581;SDS011;13462;50.764;4.332;2022-12-18T03:00:14;39.38;;;19.40;;
25581;SDS011;13462;50.764;4.332;2022-12-18T03:19:52;34.00;;;15.88;;
25581;SDS011;13462;50.764;4.332;2022-12-18T03:23:33;35.75;;;16.27;;
25581;SDS011;13462;50.764;4.332;2022-12-18T03:37:31;28.13;;;13.30;;
25581;SDS011;13462;50.764;4.332;2022-12-18T03:57:44;25.40;;;12.18;;
25581;SDS011;13462;50.764;4.332;2022-12-18T04:14:47;28.33;;;13.27;;
25581;SDS011;13462;50.764;4.332;2022-12-18T04:17:52;30.15;;;14.23;;
25581;SDS011;13462;50.764;4.332;2022-12-18T04:20:36;28.75;;;12.40;;
25581;SDS011;13462;50.764;4.332;2022-12-18T04:32:53;29.23;;;12.95;;
25581;SDS011;13462;50.764;4.332;2022-12-18T04:36:06;26.77;;;12.60;;
25581;SDS011;13462;50.764;4.332;2022-12-18T04:38:37;27.17;;;12.40;;
25581;SDS011;13462;50.764;4.332;2022-12-18T04:41:34;26.08;;;12.15;;
25581;SDS011;13462;50.764;4.332;2022-12-18T05:02:25;22.98;;;10.73;;
25581;SDS011;13462;50.764;4.332;2022-12-18T05:09:19;22.52;;;10.70;;
25581;SDS011;13462;50.764;4.332;2022-12-18T05:25:58;26.23;;;11.10;;
25581;SDS011;13462;50.764;4.332;2022-12-18T05:28:26;18.63;;;9.70;;
25581;SDS011;13462;50.764;4.332;2022-12-18T05:30:54;19.55;;;9.05;;
25581;SDS011;13462;50.764;4.332;2022-12-18T05:33:22;24.67;;;9.95;;
25581;SDS011;13462;50.764;4.332;2022-12-18T05:35:56;21.33;;;10.23;;
25581;SDS011;13462;50.764;4.332;2022-12-18T05:38:23;19.10;;;9.57;;
25581;SDS011;13462;50.764;4.332;2022-12-18T05:40:50;19.65;;;10.52;;
25581;SDS011;13462;50.764;4.332;2022-12-18T05:43:17;22.25;;;10.90;;
25581;SDS011;13462;50.764;4.332;2022-12-18T05:45:44;22.60;;;10.38;;
25581;SDS011;13462;50.764;4.332;2022-12-18T05:48:10;23.10;;;11.07;;
25581;SDS011;13462;50.764;4.332;2022-12-18T05:50:36;23.10;;;10.27;;
25581;SDS011;13462;50.764;4.332;2022-12-18T05:53:03;21.40;;;10.93;;
25581;SDS011;13462;50.764;4.332;2022-12-18T05:55:29;22.58;;;9.98;;
25581;SDS011;13462;50.764;4.332;2022-12-18T05:57:58;26.25;;;12.43;;
25581;SDS011;13462;50.764;4.332;2022-12-18T06:00:24;23.27;;;10.52;;
25581;SDS011;13462;50.764;4.332;2022-12-18T06:02:49;22.65;;;11.45;;
25581;SDS011;13462;50.764;4.332;2022-12-18T06:05:15;19.00;;;9.43;;
25581;SDS011;13462;50.764;4.332;2022-12-18T06:11:01;25.73;;;11.15;;
25581;SDS011;13462;50.764;4.332;2022-12-18T06:13:46;23.85;;;10.90;;
25581;SDS011;13462;50.764;4.332;2022-12-18T06:16:28;21.13;;;10.77;;
25581;SDS011;13462;50.764;4.332;2022-12-18T06:19:19;25.50;;;11.13;;
25581;SDS011;13462;50.764;4.332;2022-12-18T06:21:48;25.70;;;11.80;;
25581;SDS011;13462;50.764;4.332;2022-12-18T06:24:14;22.88;;;11.05;;
25581;SDS011;13462;50.764;4.332;2022-12-18T06:27:14;20.25;;;10.82;;
25581;SDS011;13462;50.764;4.332;2022-12-18T06:52:32;23.77;;;12.45;;
25581;SDS011;13462;50.764;4.332;2022-12-18T07:01:42;24.33;;;11.80;;
25581;SDS011;13462;50.764;4.332;2022-12-18T07:21:54;30.95;;;13.95;;
25581;SDS011;13462;50.764;4.332;2022-12-18T07:24:18;28.45;;;13.60;;
25581;SDS011;13462;50.764;4.332;2022-12-18T07:40:13;28.85;;;13.63;;
25581;SDS011;13462;50.764;4.332;2022-12-18T07:43:05;27.35;;;13.27;;
25581;SDS011;13462;50.764;4.332;2022-12-18T09:02:56;29.13;;;15.43;;
25581;SDS011;13462;50.764;4.332;2022-12-18T09:16:22;42.72;;;18.60;;
25581;SDS011;13462;50.764;4.332;2022-12-18T09:26:10;33.13;;;19.38;;
25581;SDS011;13462;50.764;4.332;2022-12-18T09:28:44;38.80;;;18.70;;
25581;SDS011;13462;50.764;4.332;2022-12-18T09:38:11;31.85;;;17.35;;
25581;SDS011;13462;50.764;4.332;2022-12-18T10:14:29;42.45;;;19.25;;
25581;SDS011;13462;50.764;4.332;2022-12-18T10:20:41;54.10;;;22.67;;
25581;SDS011;13462;50.764;4.332;2022-12-18T10:23:22;43.67;;;20.58;;
25581;SDS011;13462;50.764;4.332;2022-12-18T11:27:04;33.25;;;16.17;;
25581;SDS011;13462;50.764;4.332;2022-12-18T11:49:23;27.55;;;14.95;;
25581;SDS011;13462;50.764;4.332;2022-12-18T12:08:07;25.27;;;13.43;;
25581;SDS011;13462;50.764;4.332;2022-12-18T12:28:12;29.35;;;14.73;;
25581;SDS011;13462;50.764;4.332;2022-12-18T12:31:07;30.65;;;14.98;;
25581;SDS011;13462;50.764;4.332;2022-12-18T12:37:19;29.77;;;15.32;;
25581;SDS011;13462;50.764;4.332;2022-12-18T12:40:04;32.42;;;17.00;;
25581;SDS011;13462;50.764;4.332;2022-12-18T12:42:46;35.30;;;16.90;;
